createdAt,value
2023-01-26T00:01:45.020Z,101199.66
2023-01-26T00:04:13.071Z,101193.02
2023-01-26T00:06:41.096Z,101189.98
2023-01-26T00:09:14.551Z,101187.06
2023-01-26T00:11:42.619Z,101182.12
2023-01-26T00:14:10.536Z,101186.98
2023-01-26T00:16:39.500Z,101181.05
2023-01-26T00:19:07.661Z,101181.88
2023-01-26T00:21:35.570Z,101182.90
2023-01-26T00:24:04.837Z,101178.81
2023-01-26T00:26:32.855Z,101180.84
2023-01-26T00:29:01.613Z,101180.84
2023-01-26T00:31:29.639Z,101183.02
2023-01-26T00:33:57.762Z,101178.05
2023-01-26T00:36:25.981Z,101180.85
2023-01-26T00:38:54.183Z,101182.25
2023-01-26T00:41:40.753Z,101184.29
2023-01-26T00:44:10.259Z,101177.45
2023-01-26T00:46:38.425Z,101173.92
2023-01-26T00:49:08.154Z,101166.10
2023-01-26T00:51:36.104Z,101167.45
2023-01-26T00:54:05.468Z,101165.58
2023-01-26T00:56:33.396Z,101167.16
2023-01-26T00:59:01.359Z,101165.27
2023-01-26T01:01:29.242Z,101159.71
2023-01-26T01:03:57.208Z,101162.30
2023-01-26T01:06:25.164Z,101164.54
2023-01-26T01:08:52.950Z,101163.41
2023-01-26T01:11:20.974Z,101162.22
2023-01-26T01:13:48.814Z,101164.13
2023-01-26T01:16:17.480Z,101166.54
2023-01-26T01:18:46.409Z,101164.87
2023-01-26T01:21:17.195Z,101160.29
2023-01-26T01:23:45.139Z,101153.27
2023-01-26T01:26:14.099Z,101153.57
2023-01-26T01:28:43.571Z,101151.80
2023-01-26T01:31:15.194Z,101149.92
2023-01-26T01:33:43.668Z,101146.70
2023-01-26T01:36:14.711Z,101142.14
2023-01-26T01:38:44.947Z,101136.02
2023-01-26T01:41:15.304Z,101132.24
2023-01-26T01:43:43.873Z,101126.13
2023-01-26T01:46:17.896Z,101122.89
2023-01-26T01:48:56.573Z,101120.57
2023-01-26T01:51:53.923Z,101116.50
2023-01-26T01:54:32.497Z,101110.60
2023-01-26T01:57:05.226Z,101108.56
2023-01-26T01:59:33.805Z,101107.70
2023-01-26T02:02:01.793Z,101101.96
2023-01-26T02:04:29.795Z,101096.98
2023-01-26T02:07:00.797Z,101097.63
2023-01-26T02:09:54.542Z,101101.21
2023-01-26T02:12:27.747Z,101103.27
2023-01-26T02:14:57.871Z,101098.25
2023-01-26T02:17:27.352Z,101096.84
2023-01-26T02:20:16.332Z,101091.20
2023-01-26T02:22:58.126Z,101080.59
2023-01-26T02:25:47.533Z,101079.34
2023-01-26T02:28:16.911Z,101075.73
2023-01-26T02:30:46.570Z,101075.41
2023-01-26T02:33:24.446Z,101073.40
2023-01-26T02:35:53.515Z,101063.23
2023-01-26T02:38:24.537Z,101060.35
2023-01-26T02:41:02.620Z,101060.66
2023-01-26T02:43:30.745Z,101058.59
2023-01-26T02:45:59.720Z,101053.16
2023-01-26T02:48:48.074Z,101053.37
2023-01-26T02:51:16.861Z,101050.13
2023-01-26T02:53:45.021Z,101050.30
2023-01-26T02:56:13.092Z,101040.81
2023-01-26T02:58:41.295Z,101038.96
2023-01-26T03:01:09.179Z,101036.79
2023-01-26T03:03:47.746Z,101032.05
2023-01-26T03:06:15.984Z,101030.16
2023-01-26T03:08:43.854Z,101027.90
2023-01-26T03:11:11.973Z,101021.56
2023-01-26T03:13:40.981Z,101019.13
2023-01-26T03:16:10.436Z,101018.77
2023-01-26T03:18:57.434Z,101012.46
2023-01-26T03:21:45.102Z,101014.89
2023-01-26T03:24:34.268Z,101017.58
2023-01-26T03:27:23.653Z,101017.59
2023-01-26T03:29:51.887Z,101010.95
2023-01-26T03:32:19.786Z,101007.71
2023-01-26T03:34:48.366Z,101007.23
2023-01-26T03:37:16.394Z,100999.56
2023-01-26T03:40:12.312Z,100997.89
2023-01-26T03:42:59.390Z,100996.08
2023-01-26T03:45:47.242Z,100995.38
2023-01-26T03:48:33.893Z,100997.56
2023-01-26T03:51:21.448Z,100995.02
2023-01-26T03:54:07.781Z,100991.45
2023-01-26T03:56:35.914Z,100985.73
2023-01-26T03:59:12.501Z,100979.61
2023-01-26T04:02:02.950Z,100981.48
2023-01-26T04:04:50.236Z,100981.45
2023-01-26T04:07:41.557Z,100978.86
2023-01-26T04:10:10.525Z,100981.71
2023-01-26T04:12:38.687Z,100979.64
2023-01-26T04:15:35.167Z,100977.06
2023-01-26T04:18:26.959Z,100977.90
2023-01-26T04:21:14.479Z,100976.52
2023-01-26T04:23:44.592Z,100970.38
2023-01-26T04:26:12.697Z,100970.72
2023-01-26T04:28:40.855Z,100972.92
2023-01-26T04:31:09.270Z,100971.23
2023-01-26T04:33:38.618Z,100971.23
2023-01-26T04:36:08.371Z,100973.32
2023-01-26T04:38:38.860Z,100970.77
2023-01-26T04:41:06.852Z,100965.83
2023-01-26T04:43:41.038Z,100962.73
2023-01-26T04:46:09.306Z,100966.63
2023-01-26T04:48:39.694Z,100969.52
2023-01-26T04:51:17.235Z,100970.55
2023-01-26T04:53:45.188Z,100968.48
2023-01-26T04:56:34.601Z,100966.80
2023-01-26T04:59:06.735Z,100968.51
2023-01-26T05:01:36.701Z,100962.17
2023-01-26T05:04:08.696Z,100965.59
2023-01-26T05:06:40.689Z,100963.55
2023-01-26T05:09:09.577Z,100966.23
2023-01-26T05:11:39.014Z,100964.30
2023-01-26T05:14:16.083Z,100960.24
2023-01-26T05:17:09.812Z,100961.62
2023-01-26T05:19:49.935Z,100958.90
2023-01-26T05:22:20.664Z,100954.14
2023-01-26T05:25:08.037Z,100953.96
2023-01-26T05:27:47.846Z,100957.86
2023-01-26T05:30:16.807Z,100951.70
2023-01-26T05:32:45.177Z,100943.87
2023-01-26T05:35:13.737Z,100946.11
2023-01-26T05:37:42.639Z,100945.11
2023-01-26T05:40:12.817Z,100953.82
2023-01-26T05:42:42.862Z,100949.70
2023-01-26T05:45:21.879Z,100950.02
2023-01-26T05:47:52.007Z,100951.09
2023-01-26T05:50:20.083Z,100953.50
2023-01-26T05:53:08.064Z,100951.15
2023-01-26T05:55:37.428Z,100948.41
2023-01-26T05:58:05.464Z,100950.48
2023-01-26T06:00:34.523Z,100949.08
2023-01-26T06:03:07.398Z,100951.98
2023-01-26T06:05:36.259Z,100956.23
2023-01-26T06:08:10.153Z,100956.69
2023-01-26T06:10:51.431Z,100958.19
2023-01-26T06:13:26.042Z,100956.61
2023-01-26T06:16:02.922Z,100956.11
2023-01-26T06:18:31.948Z,100959.19
2023-01-26T06:21:01.479Z,100963.79
2023-01-26T06:23:30.207Z,100963.13
2023-01-26T06:26:02.580Z,100962.36
2023-01-26T06:28:31.640Z,100963.36
2023-01-26T06:31:04.766Z,100970.85
2023-01-26T06:33:35.504Z,100965.58
2023-01-26T06:36:11.443Z,100966.79
2023-01-26T06:38:45.447Z,100966.80
2023-01-26T06:41:13.989Z,100962.08
2023-01-26T06:43:46.661Z,100962.64
2023-01-26T06:46:16.163Z,100962.09
2023-01-26T06:48:45.867Z,100957.65
2023-01-26T06:51:16.815Z,100957.45
2023-01-26T06:53:56.653Z,100949.11
2023-01-26T06:56:39.257Z,100953.59
2023-01-26T06:59:22.804Z,100949.86
2023-01-26T07:02:20.873Z,100947.47
2023-01-26T07:04:50.207Z,100947.43
2023-01-26T07:07:18.136Z,100950.88
2023-01-26T07:09:46.066Z,100951.13
2023-01-26T07:12:14.925Z,100952.70
2023-01-26T07:14:42.766Z,100955.13
2023-01-26T07:17:10.606Z,100952.92
2023-01-26T07:19:38.641Z,100951.05
2023-01-26T07:22:06.457Z,100953.80
2023-01-26T07:24:34.295Z,100951.48
2023-01-26T07:27:02.116Z,100948.86
2023-01-26T07:29:30.058Z,100949.41
2023-01-26T07:31:58.044Z,100948.93
2023-01-26T07:34:26.008Z,100944.52
2023-01-26T07:36:53.827Z,100943.67
2023-01-26T07:39:21.640Z,100941.30
2023-01-26T07:41:50.207Z,100943.33
2023-01-26T07:44:47.290Z,100940.80
2023-01-26T07:47:15.737Z,100939.61
2023-01-26T07:49:43.546Z,100936.73
2023-01-26T07:52:11.622Z,100935.05
2023-01-26T07:54:40.047Z,100931.83
2023-01-26T07:57:09.184Z,100930.35
2023-01-26T07:59:37.110Z,100929.56
2023-01-26T08:02:04.928Z,100929.42
2023-01-26T08:04:32.849Z,100930.11
2023-01-26T08:07:01.296Z,100927.77
2023-01-26T08:09:29.323Z,100924.61
2023-01-26T08:11:58.950Z,100929.39
2023-01-26T08:14:35.436Z,100928.48
2023-01-26T08:17:09.863Z,100929.14
2023-01-26T08:19:38.525Z,100922.84
2023-01-26T08:22:06.418Z,100920.84
2023-01-26T08:24:34.345Z,100918.61
2023-01-26T08:27:02.167Z,100921.14
2023-01-26T08:29:30.199Z,100922.34
2023-01-26T08:31:58.080Z,100922.70
2023-01-26T08:34:26.801Z,100921.34
2023-01-26T08:36:54.604Z,100920.38
2023-01-26T08:39:22.386Z,100916.86
2023-01-26T08:41:50.170Z,100917.79
2023-01-26T08:44:18.062Z,100919.06
2023-01-26T08:46:46.300Z,100922.54
2023-01-26T08:49:14.434Z,100924.23
2023-01-26T08:51:42.468Z,100923.91
2023-01-26T08:54:10.294Z,100921.88
2023-01-26T08:56:38.113Z,100924.08
2023-01-26T08:59:06.012Z,100930.23
2023-01-26T09:01:33.752Z,100934.46
2023-01-26T09:04:03.144Z,100933.63
2023-01-26T09:06:33.279Z,100936.89
2023-01-26T09:09:01.232Z,100938.09
2023-01-26T09:11:29.056Z,100939.79
2023-01-26T09:13:56.892Z,100943.20
2023-01-26T09:16:25.715Z,100944.14
2023-01-26T09:18:54.387Z,100946.65
2023-01-26T09:21:24.138Z,100946.27
2023-01-26T09:23:52.165Z,100944.70
2023-01-26T09:26:20.140Z,100943.39
2023-01-26T09:28:53.238Z,100943.42
2023-01-26T09:31:21.339Z,100945.14
2023-01-26T09:33:50.964Z,100942.99
2023-01-26T09:36:19.258Z,100942.00
2023-01-26T09:38:47.193Z,100943.05
2023-01-26T09:41:20.736Z,100939.66
2023-01-26T09:43:54.930Z,100935.42
2023-01-26T09:46:27.928Z,100932.06
2023-01-26T09:49:21.822Z,100935.67
2023-01-26T09:52:00.894Z,100933.48
2023-01-26T09:54:49.520Z,100929.62
2023-01-26T09:57:23.382Z,100923.66
2023-01-26T10:00:08.275Z,100923.35
2023-01-26T10:02:49.521Z,100923.20
2023-01-26T10:05:32.185Z,100921.33
2023-01-26T10:08:11.765Z,100918.55
2023-01-26T10:10:45.845Z,100913.60
2023-01-26T10:13:15.894Z,100910.52
2023-01-26T10:15:48.687Z,100906.74
2023-01-26T10:18:21.332Z,100904.64
2023-01-26T10:20:52.229Z,100902.23
2023-01-26T10:23:32.254Z,100894.25
2023-01-26T10:26:17.660Z,100891.91
2023-01-26T10:28:48.157Z,100890.19
2023-01-26T10:31:32.694Z,100885.40
2023-01-26T10:34:17.908Z,100883.16
2023-01-26T10:36:47.472Z,100886.08
2023-01-26T10:39:18.111Z,100880.14
2023-01-26T10:42:03.594Z,100880.66
2023-01-26T10:44:37.983Z,100876.75
2023-01-26T10:47:17.510Z,100868.06
2023-01-26T10:49:45.980Z,100865.33
2023-01-26T10:52:18.719Z,100867.05
2023-01-26T10:54:46.728Z,100862.48
2023-01-26T10:57:17.020Z,100859.41
2023-01-26T11:00:00.138Z,100852.62
2023-01-26T11:02:30.888Z,100847.04
2023-01-26T11:05:05.161Z,100850.70
2023-01-26T11:07:40.724Z,100847.88
2023-01-26T11:10:33.644Z,100844.70
2023-01-26T11:13:17.759Z,100832.58
2023-01-26T11:16:00.292Z,100824.05
2023-01-26T11:18:42.886Z,100822.88
2023-01-26T11:21:20.823Z,100824.08
2023-01-26T11:23:57.845Z,100817.91
2023-01-26T11:26:54.866Z,100813.07
2023-01-26T11:29:51.094Z,100816.14
2023-01-26T11:32:46.625Z,100814.59
2023-01-26T11:35:29.697Z,100811.52
2023-01-26T11:38:20.128Z,100802.64
2023-01-26T11:41:06.120Z,100804.52
2023-01-26T11:43:47.720Z,100801.64
2023-01-26T11:46:21.524Z,100798.38
2023-01-26T11:48:52.297Z,100792.76
2023-01-26T11:51:45.315Z,100788.50
2023-01-26T11:54:36.333Z,100784.05
2023-01-26T11:57:27.888Z,100784.02
2023-01-26T12:00:02.142Z,100782.80
2023-01-26T12:02:43.684Z,100781.59
2023-01-26T12:05:22.321Z,100776.83
2023-01-26T12:08:05.220Z,100773.73
2023-01-26T12:10:42.128Z,100769.42
2023-01-26T12:13:23.257Z,100772.87
2023-01-26T12:15:56.929Z,100777.83
2023-01-26T12:18:50.669Z,100778.52
2023-01-26T12:21:22.742Z,100776.46
2023-01-26T12:24:02.357Z,100766.77
2023-01-26T12:26:42.578Z,100766.77
2023-01-26T12:29:26.447Z,100765.91
2023-01-26T12:32:10.801Z,100767.58
2023-01-26T12:34:39.152Z,100767.20
2023-01-26T12:37:25.863Z,100763.95
2023-01-26T12:40:20.390Z,100765.80
2023-01-26T12:42:51.437Z,100764.95
2023-01-26T12:45:32.655Z,100760.17
2023-01-26T12:48:13.988Z,100765.80
2023-01-26T12:51:08.967Z,100767.66
2023-01-26T12:53:43.556Z,100767.45
2023-01-26T12:56:25.965Z,100763.53
2023-01-26T12:58:55.515Z,100761.77
2023-01-26T13:01:29.084Z,100765.21
2023-01-26T13:04:00.146Z,100768.10
2023-01-26T13:06:29.607Z,100773.04
2023-01-26T13:08:57.336Z,100769.40
2023-01-26T13:11:50.014Z,100770.94
2023-01-26T13:14:42.500Z,100768.70
2023-01-26T13:17:16.486Z,100766.16
2023-01-26T13:19:44.407Z,100762.41
2023-01-26T13:22:18.451Z,100764.09
2023-01-26T13:24:56.182Z,100760.65
2023-01-26T13:27:39.623Z,100757.05
2023-01-26T13:30:26.179Z,100748.83
2023-01-26T13:32:58.199Z,100747.26
2023-01-26T13:35:27.005Z,100748.08
2023-01-26T13:38:15.707Z,100747.92
2023-01-26T13:40:50.491Z,100743.14
2023-01-26T13:43:40.426Z,100740.38
2023-01-26T13:46:14.272Z,100745.12
2023-01-26T13:48:52.645Z,100752.23
2023-01-26T13:51:27.398Z,100745.73
2023-01-26T13:54:04.532Z,100750.54
2023-01-26T13:56:35.323Z,100747.28
2023-01-26T13:59:09.607Z,100746.06
2023-01-26T14:01:49.207Z,100743.14
2023-01-26T14:04:35.462Z,100742.45
2023-01-26T14:07:15.734Z,100740.71
2023-01-26T14:09:48.754Z,100743.77
2023-01-26T14:12:23.946Z,100742.20
2023-01-26T14:14:56.695Z,100746.30
2023-01-26T14:17:26.625Z,100749.38
2023-01-26T14:19:54.980Z,100751.57
2023-01-26T14:22:23.148Z,100749.35
2023-01-26T14:24:52.997Z,100745.77
2023-01-26T14:27:42.529Z,100745.55
2023-01-26T14:30:30.849Z,100744.02
2023-01-26T14:33:24.915Z,100742.65
2023-01-26T14:35:59.069Z,100740.59
2023-01-26T14:38:29.381Z,100735.41
2023-01-26T14:41:00.659Z,100731.16
2023-01-26T14:43:28.554Z,100728.09
2023-01-26T14:46:13.147Z,100726.05
2023-01-26T14:48:47.013Z,100725.20
2023-01-26T14:51:24.465Z,100720.92
2023-01-26T14:54:01.306Z,100726.55
2023-01-26T14:56:40.681Z,100722.27
2023-01-26T14:59:14.976Z,100721.38
2023-01-26T15:01:42.915Z,100713.13
2023-01-26T15:04:26.142Z,100711.89
2023-01-26T15:06:53.974Z,100710.11
2023-01-26T15:09:26.651Z,100705.98
2023-01-26T15:12:16.340Z,100704.80
2023-01-26T15:14:49.241Z,100706.81
2023-01-26T15:17:40.952Z,100708.02
2023-01-26T15:20:14.937Z,100713.13
2023-01-26T15:22:50.077Z,100713.60
2023-01-26T15:25:23.425Z,100717.16
2023-01-26T15:27:57.455Z,100719.33
2023-01-26T15:30:28.046Z,100722.34
2023-01-26T15:32:56.419Z,100719.91
2023-01-26T15:35:29.763Z,100721.42
2023-01-26T15:38:13.040Z,100718.88
2023-01-26T15:40:40.923Z,100718.53
2023-01-26T15:43:13.655Z,100718.17
2023-01-26T15:45:50.862Z,100716.64
2023-01-26T15:48:19.713Z,100715.95
2023-01-26T15:50:48.548Z,100717.84
2023-01-26T15:53:22.047Z,100723.99
2023-01-26T15:55:56.114Z,100724.88
2023-01-26T15:58:25.915Z,100726.92
2023-01-26T16:00:53.935Z,100727.21
2023-01-26T16:03:22.670Z,100729.43
2023-01-26T16:05:50.895Z,100732.40
2023-01-26T16:08:19.445Z,100738.50
2023-01-26T16:10:47.891Z,100740.16
2023-01-26T16:13:18.315Z,100741.48
2023-01-26T16:15:49.553Z,100738.36
2023-01-26T16:18:17.810Z,100738.01
2023-01-26T16:20:47.883Z,100737.48
2023-01-26T16:23:24.827Z,100736.45
2023-01-26T16:25:53.137Z,100736.79
2023-01-26T16:28:22.881Z,100742.42
2023-01-26T16:30:51.338Z,100740.70
2023-01-26T16:33:24.632Z,100743.04
2023-01-26T16:35:53.353Z,100747.45
2023-01-26T16:38:21.183Z,100747.45
2023-01-26T16:40:49.742Z,100743.55
2023-01-26T16:43:24.227Z,100744.43
2023-01-26T16:45:52.969Z,100748.19
2023-01-26T16:48:22.753Z,100742.91
2023-01-26T16:50:53.967Z,100742.91
2023-01-26T16:53:29.373Z,100745.80
2023-01-26T16:55:57.222Z,100752.30
2023-01-26T16:58:26.729Z,100748.53
2023-01-26T17:00:55.563Z,100748.70
2023-01-26T17:03:24.322Z,100747.69
2023-01-26T17:05:52.529Z,100749.89
2023-01-26T17:08:20.368Z,100744.42
2023-01-26T17:11:01.066Z,100747.83
2023-01-26T17:13:31.652Z,100748.14
2023-01-26T17:15:59.633Z,100749.51
2023-01-26T17:18:27.821Z,100746.44
2023-01-26T17:21:02.803Z,100744.21
2023-01-26T17:23:31.538Z,100739.95
2023-01-26T17:26:00.571Z,100736.88
2023-01-26T17:28:28.710Z,100739.92
2023-01-26T17:30:58.357Z,100741.27
2023-01-26T17:33:28.758Z,100742.13
2023-01-26T17:36:05.180Z,100745.41
2023-01-26T17:38:33.560Z,100741.66
2023-01-26T17:41:01.438Z,100741.30
2023-01-26T17:43:29.758Z,100737.73
2023-01-26T17:46:08.516Z,100737.08
2023-01-26T17:48:40.258Z,100734.04
2023-01-26T17:51:10.258Z,100734.71
2023-01-26T17:53:40.101Z,100731.96
2023-01-26T17:56:10.360Z,100731.27
2023-01-26T17:58:39.012Z,100725.96
2023-01-26T18:01:09.818Z,100727.33
2023-01-26T18:03:41.810Z,100718.45
2023-01-26T18:06:10.737Z,100714.52
2023-01-26T18:08:39.729Z,100710.55
2023-01-26T18:11:11.502Z,100712.39
2023-01-26T18:13:40.771Z,100710.85
2023-01-26T18:16:14.130Z,100712.50
2023-01-26T18:18:46.044Z,100713.33
2023-01-26T18:21:22.801Z,100722.55
2023-01-26T18:23:54.167Z,100716.89
2023-01-26T18:26:25.575Z,100720.32
2023-01-26T18:28:54.821Z,100720.30
2023-01-26T18:31:24.652Z,100718.60
2023-01-26T18:33:54.933Z,100725.10
2023-01-26T18:36:23.726Z,100726.33
2023-01-26T18:38:54.908Z,100728.20
2023-01-26T18:41:25.129Z,100732.98
2023-01-26T18:44:00.147Z,100733.16
2023-01-26T18:46:31.785Z,100732.98
2023-01-26T18:49:01.111Z,100736.02
2023-01-26T18:51:32.432Z,100731.22
2023-01-26T18:54:04.176Z,100729.83
2023-01-26T18:56:34.427Z,100728.94
2023-01-26T18:59:03.114Z,100728.59
2023-01-26T19:01:32.293Z,100732.00
2023-01-26T19:04:05.969Z,100734.40
2023-01-26T19:06:36.538Z,100736.45
2023-01-26T19:09:07.799Z,100737.30
2023-01-26T19:11:38.295Z,100734.58
2023-01-26T19:14:08.208Z,100735.27
2023-01-26T19:16:36.929Z,100737.50
2023-01-26T19:19:05.334Z,100737.31
2023-01-26T19:21:34.156Z,100731.03
2023-01-26T19:24:05.804Z,100732.75
2023-01-26T19:26:34.488Z,100733.77
2023-01-26T19:29:04.110Z,100730.17
2023-01-26T19:31:33.068Z,100733.11
2023-01-26T19:34:03.858Z,100735.82
2023-01-26T19:36:34.172Z,100733.71
2023-01-26T19:39:03.754Z,100731.80
2023-01-26T19:41:32.040Z,100736.40
2023-01-26T19:44:00.972Z,100740.34
2023-01-26T19:46:28.936Z,100741.87
2023-01-26T19:48:56.774Z,100735.54
2023-01-26T19:51:27.276Z,100737.23
2023-01-26T19:53:59.077Z,100734.16
2023-01-26T19:56:30.634Z,100735.33
2023-01-26T19:59:01.461Z,100735.47
2023-01-26T20:01:31.191Z,100737.52
2023-01-26T20:04:02.483Z,100736.19
2023-01-26T20:06:32.942Z,100736.73
2023-01-26T20:09:01.200Z,100736.58
2023-01-26T20:11:29.851Z,100735.23
2023-01-26T20:14:00.088Z,100732.00
2023-01-26T20:16:29.386Z,100731.80
2023-01-26T20:18:59.253Z,100735.04
2023-01-26T20:21:28.734Z,100729.95
2023-01-26T20:24:06.290Z,100722.45
2023-01-26T20:26:35.636Z,100716.77
2023-01-26T20:29:04.484Z,100719.63
2023-01-26T20:31:33.223Z,100717.52
2023-01-26T20:34:02.316Z,100718.36
2023-01-26T20:36:31.595Z,100721.64
2023-01-26T20:38:59.552Z,100719.75
2023-01-26T20:41:29.881Z,100721.93
2023-01-26T20:44:01.831Z,100723.95
2023-01-26T20:46:36.580Z,100723.23
2023-01-26T20:49:05.998Z,100725.23
2023-01-26T20:51:36.019Z,100721.86
2023-01-26T20:54:08.826Z,100725.45
2023-01-26T20:56:38.314Z,100721.36
2023-01-26T20:59:08.117Z,100720.85
2023-01-26T21:01:36.630Z,100720.16
2023-01-26T21:04:05.909Z,100720.16
2023-01-26T21:06:34.306Z,100714.56
2023-01-26T21:09:03.052Z,100717.63
2023-01-26T21:11:31.535Z,100716.60
2023-01-26T21:14:01.801Z,100719.02
2023-01-26T21:16:31.906Z,100720.40
2023-01-26T21:19:00.136Z,100716.81
2023-01-26T21:21:28.311Z,100716.82
2023-01-26T21:23:56.572Z,100717.65
2023-01-26T21:26:26.049Z,100717.65
2023-01-26T21:28:56.391Z,100720.17
2023-01-26T21:31:26.232Z,100717.92
2023-01-26T21:33:54.959Z,100713.48
2023-01-26T21:36:26.331Z,100716.73
2023-01-26T21:38:56.195Z,100714.86
2023-01-26T21:41:46.712Z,100718.56
2023-01-26T21:44:17.760Z,100719.88
2023-01-26T21:46:47.034Z,100720.52
2023-01-26T21:49:16.113Z,100723.00
2023-01-26T21:52:02.837Z,100723.84
2023-01-26T21:54:31.933Z,100721.15
2023-01-26T21:57:00.853Z,100722.17
2023-01-26T21:59:29.416Z,100720.11
2023-01-26T22:01:58.398Z,100720.64
2023-01-26T22:04:30.635Z,100722.18
2023-01-26T22:06:58.548Z,100717.29
2023-01-26T22:09:26.574Z,100710.30
2023-01-26T22:11:54.392Z,100710.11
2023-01-26T22:14:27.258Z,100709.56
2023-01-26T22:16:55.207Z,100709.41
2023-01-26T22:19:23.070Z,100706.17
2023-01-26T22:21:51.484Z,100705.46
2023-01-26T22:24:19.821Z,100707.81
2023-01-26T22:26:48.318Z,100707.64
2023-01-26T22:29:16.629Z,100709.63
2023-01-26T22:31:44.734Z,100712.27
2023-01-26T22:34:12.540Z,100710.91
2023-01-26T22:36:41.231Z,100708.03
2023-01-26T22:39:09.389Z,100708.92
2023-01-26T22:41:37.961Z,100707.80
2023-01-26T22:44:06.411Z,100702.54
2023-01-26T22:46:35.333Z,100701.48
2023-01-26T22:49:05.058Z,100704.44
2023-01-26T22:51:37.525Z,100707.37
2023-01-26T22:54:05.843Z,100704.29
2023-01-26T22:56:34.171Z,100699.34
2023-01-26T22:59:02.480Z,100701.42
2023-01-26T23:01:32.926Z,100701.23
2023-01-26T23:04:01.930Z,100696.59
2023-01-26T23:06:29.904Z,100697.59
2023-01-26T23:09:02.334Z,100689.52
2023-01-26T23:11:31.089Z,100689.30
2023-01-26T23:14:00.660Z,100693.05
2023-01-26T23:16:29.382Z,100692.35
2023-01-26T23:18:59.524Z,100693.34
2023-01-26T23:21:28.710Z,100692.29
2023-01-26T23:23:57.316Z,100690.23
2023-01-26T23:26:25.592Z,100688.73
2023-01-26T23:28:53.638Z,100687.41
2023-01-26T23:31:22.241Z,100688.15
2023-01-26T23:33:50.222Z,100692.42
2023-01-26T23:36:18.059Z,100688.86
2023-01-26T23:38:45.911Z,100691.12
2023-01-26T23:41:14.006Z,100691.36
2023-01-26T23:43:41.864Z,100688.98
2023-01-26T23:46:11.107Z,100688.34
2023-01-26T23:48:39.808Z,100687.48
2023-01-26T23:51:10.803Z,100684.56
2023-01-26T23:53:39.295Z,100684.00
2023-01-26T23:56:10.375Z,100680.17
2023-01-26T23:58:38.250Z,100677.58
